createdAt,value
2017-08-12T00:00:18.689Z,11.53
2017-08-12T00:02:46.210Z,10.77
2017-08-12T00:05:13.765Z,10.80
2017-08-12T00:07:41.281Z,9.87
2017-08-12T00:10:08.914Z,18.03
2017-08-12T00:12:36.466Z,11.53
2017-08-12T00:15:03.988Z,10.37
2017-08-12T00:17:31.538Z,13.07
2017-08-12T00:19:59.059Z,16.30
2017-08-12T00:22:26.604Z,9.33
2017-08-12T00:24:54.126Z,10.73
2017-08-12T00:27:21.692Z,13.67
2017-08-12T00:29:49.241Z,9.97
2017-08-12T00:32:16.810Z,9.63
2017-08-12T00:34:44.349Z,12.80
2017-08-12T00:37:11.901Z,10.03
2017-08-12T00:39:39.471Z,10.43
2017-08-12T00:42:06.997Z,18.27
2017-08-12T00:44:34.553Z,7.77
2017-08-12T00:47:02.081Z,11.87
2017-08-12T00:49:29.648Z,18.00
2017-08-12T00:51:57.169Z,13.67
2017-08-12T00:54:24.690Z,11.23
2017-08-12T00:56:52.264Z,12.27
2017-08-12T00:59:19.825Z,14.83
2017-08-12T01:01:47.395Z,11.83
2017-08-12T01:04:14.943Z,10.43
2017-08-12T01:06:42.505Z,8.00
2017-08-12T01:09:10.027Z,14.73
2017-08-12T01:11:37.559Z,10.83
2017-08-12T01:14:05.117Z,10.57
2017-08-12T01:16:32.636Z,8.67
2017-08-12T01:19:00.191Z,9.60
2017-08-12T01:21:27.714Z,11.90
2017-08-12T01:23:55.237Z,9.60
2017-08-12T01:26:22.806Z,7.20
2017-08-12T01:28:50.331Z,10.33
2017-08-12T01:31:17.916Z,10.43
2017-08-12T01:33:45.435Z,7.83
2017-08-12T01:36:12.971Z,10.20
2017-08-12T01:38:40.573Z,21.23
2017-08-12T01:41:08.103Z,12.40
2017-08-12T01:43:35.664Z,10.90
2017-08-12T01:46:03.227Z,7.57
2017-08-12T01:48:30.780Z,12.70
2017-08-12T01:50:58.306Z,8.20
2017-08-12T01:53:25.831Z,13.83
2017-08-12T01:55:53.388Z,9.37
2017-08-12T01:58:20.915Z,6.97
2017-08-12T02:00:48.472Z,7.10
2017-08-12T02:03:15.992Z,8.27
2017-08-12T02:05:43.571Z,12.00
2017-08-12T02:08:11.124Z,12.60
2017-08-12T02:10:38.638Z,8.63
2017-08-12T02:13:06.187Z,13.53
2017-08-12T02:15:33.702Z,10.37
2017-08-12T02:18:01.269Z,10.23
2017-08-12T02:20:28.800Z,10.03
2017-08-12T02:22:56.324Z,10.23
2017-08-12T02:25:23.950Z,8.20
2017-08-12T02:27:51.493Z,21.07
2017-08-12T02:30:19.079Z,18.00
2017-08-12T02:32:46.598Z,15.87
2017-08-12T02:35:14.113Z,9.20
2017-08-12T02:37:41.664Z,8.20
2017-08-12T02:40:09.188Z,9.90
2017-08-12T02:42:36.749Z,13.10
2017-08-12T02:45:04.315Z,10.20
2017-08-12T02:47:31.892Z,10.60
2017-08-12T02:49:59.464Z,9.63
2017-08-12T02:52:26.994Z,9.07
2017-08-12T02:54:54.548Z,7.50
2017-08-12T02:57:22.084Z,7.83
2017-08-12T02:59:49.635Z,7.27
2017-08-12T03:02:17.148Z,9.83
2017-08-12T03:04:44.692Z,7.30
2017-08-12T03:07:12.247Z,6.03
2017-08-12T03:09:39.806Z,7.73
2017-08-12T03:12:07.365Z,7.87
2017-08-12T03:14:34.882Z,7.90
2017-08-12T03:17:02.429Z,12.63
2017-08-12T03:19:29.941Z,8.87
2017-08-12T03:21:57.530Z,8.53
2017-08-12T03:24:25.061Z,13.33
2017-08-12T03:26:52.568Z,6.23
2017-08-12T03:29:20.123Z,7.50
2017-08-12T03:31:47.641Z,11.50
2017-08-12T03:34:15.197Z,6.67
2017-08-12T03:36:42.705Z,8.23
2017-08-12T03:39:10.263Z,9.23
2017-08-12T03:41:37.782Z,9.20
2017-08-12T03:44:05.370Z,7.60
2017-08-12T03:46:32.928Z,10.13
2017-08-12T03:49:00.445Z,6.60
2017-08-12T03:51:28.082Z,8.13
2017-08-12T03:53:55.604Z,6.00
2017-08-12T03:56:23.162Z,4.50
2017-08-12T03:58:50.677Z,5.57
2017-08-12T04:01:18.189Z,5.70
2017-08-12T04:03:45.770Z,5.23
2017-08-12T04:06:13.289Z,4.87
2017-08-12T04:08:40.802Z,5.83
2017-08-12T04:11:08.353Z,6.00
2017-08-12T04:13:35.875Z,4.87
2017-08-12T04:16:03.388Z,4.00
2017-08-12T04:18:30.946Z,4.57
2017-08-12T04:20:58.496Z,8.47
2017-08-12T04:23:26.058Z,3.83
2017-08-12T04:25:53.567Z,9.73
2017-08-12T04:28:21.079Z,4.47
2017-08-12T04:30:48.629Z,5.93
2017-08-12T04:33:16.137Z,5.67
2017-08-12T04:35:43.718Z,20.63
2017-08-12T04:38:11.259Z,10.17
2017-08-12T04:40:38.829Z,10.87
2017-08-12T04:43:06.345Z,4.73
2017-08-12T04:45:33.984Z,5.87
2017-08-12T04:48:01.496Z,5.60
2017-08-12T04:50:29.015Z,4.60
2017-08-12T04:52:56.586Z,7.40
2017-08-12T04:55:24.118Z,5.20
2017-08-12T04:57:51.674Z,8.03
2017-08-12T05:00:19.192Z,8.73
2017-08-12T05:02:46.744Z,7.47
2017-08-12T17:52:55.334Z,7.30
2017-08-12T17:55:22.865Z,17.30
2017-08-12T17:57:50.429Z,11.70
2017-08-12T18:00:20.318Z,8.18
2017-08-12T18:02:48.363Z,14.23
2017-08-12T18:05:16.853Z,28.60
2017-08-12T18:07:44.706Z,11.07
2017-08-12T18:10:13.233Z,6.30
2017-08-12T18:12:42.233Z,18.43
2017-08-12T18:15:11.490Z,11.53
2017-08-12T18:17:39.856Z,11.47
2017-08-12T18:20:08.181Z,6.13
2017-08-12T18:22:35.831Z,7.30
2017-08-12T18:25:03.774Z,6.20
2017-08-12T18:27:31.870Z,5.20
2017-08-12T18:30:00.015Z,10.73
2017-08-12T18:32:27.647Z,6.70
2017-08-12T18:34:55.368Z,2.93
2017-08-12T18:37:23.777Z,8.47
2017-08-12T18:39:51.586Z,6.73
2017-08-12T18:42:19.443Z,5.83
2017-08-12T18:44:47.493Z,7.03
2017-08-12T18:47:15.322Z,12.70
2017-08-12T18:49:42.849Z,12.63
2017-08-12T18:52:10.402Z,17.93
2017-08-12T18:54:37.929Z,19.80
2017-08-12T18:57:05.497Z,14.73
2017-08-12T18:59:33.431Z,18.10
2017-08-12T19:02:01.362Z,15.10
2017-08-12T19:04:29.452Z,12.47
2017-08-12T19:06:57.300Z,7.17
2017-08-12T19:09:25.674Z,18.57
2017-08-12T19:11:53.857Z,20.27
2017-08-12T19:14:21.702Z,22.75
2017-08-12T19:16:49.483Z,10.67
2017-08-12T19:19:20.426Z,9.20
2017-08-12T19:21:48.494Z,52.10
2017-08-12T19:24:16.876Z,14.83
2017-08-12T19:26:44.771Z,42.47
2017-08-12T19:29:12.608Z,33.67
2017-08-12T19:31:40.669Z,26.70
2017-08-12T19:34:08.330Z,51.53
2017-08-12T19:36:36.197Z,33.13
2017-08-12T19:39:04.054Z,61.47
2017-08-12T19:41:31.725Z,70.43
2017-08-12T19:43:59.795Z,58.00
2017-08-12T19:46:27.714Z,24.00
2017-08-12T19:48:55.360Z,35.80
2017-08-12T19:51:23.295Z,36.67
2017-08-12T19:53:51.369Z,42.73
